sensor_id;sensor_type;location;lat;lon;timestamp;temperature;humidity
65836;SHT30;52595;51.608;7.216;2022-12-20T00:02:23;11.07;84.53
65836;SHT30;52595;51.608;7.216;2022-12-20T00:04:48;11.13;84.12
65836;SHT30;52595;51.608;7.216;2022-12-20T00:07:13;11.16;84.10
65836;SHT30;52595;51.608;7.216;2022-12-20T00:09:39;11.24;83.76
65836;SHT30;52595;51.608;7.216;2022-12-20T00:12:05;11.22;83.86
65836;SHT30;52595;51.608;7.216;2022-12-20T00:14:30;11.27;83.54
65836;SHT30;52595;51.608;7.216;2022-12-20T00:16:55;11.31;83.50
65836;SHT30;52595;51.608;7.216;2022-12-20T00:19:21;11.30;83.61
65836;SHT30;52595;51.608;7.216;2022-12-20T00:21:46;11.33;83.41
65836;SHT30;52595;51.608;7.216;2022-12-20T00:24:11;11.31;83.30
65836;SHT30;52595;51.608;7.216;2022-12-20T00:26:37;11.38;82.93
65836;SHT30;52595;51.608;7.216;2022-12-20T00:29:03;11.37;83.02
65836;SHT30;52595;51.608;7.216;2022-12-20T00:31:30;11.38;82.77
65836;SHT30;52595;51.608;7.216;2022-12-20T00:33:56;11.47;82.03
65836;SHT30;52595;51.608;7.216;2022-12-20T00:36:23;11.48;82.00
65836;SHT30;52595;51.608;7.216;2022-12-20T00:38:51;11.41;82.05
65836;SHT30;52595;51.608;7.216;2022-12-20T00:41:23;11.47;81.85
65836;SHT30;52595;51.608;7.216;2022-12-20T00:43:48;11.44;81.80
65836;SHT30;52595;51.608;7.216;2022-12-20T00:46:14;11.44;81.82
65836;SHT30;52595;51.608;7.216;2022-12-20T00:48:41;11.47;81.70
65836;SHT30;52595;51.608;7.216;2022-12-20T00:51:11;11.45;81.92
65836;SHT30;52595;51.608;7.216;2022-12-20T00:53:38;11.54;81.66
65836;SHT30;52595;51.608;7.216;2022-12-20T00:56:05;11.53;81.74
65836;SHT30;52595;51.608;7.216;2022-12-20T00:58:32;11.47;81.94
65836;SHT30;52595;51.608;7.216;2022-12-20T01:00:57;11.40;82.38
65836;SHT30;52595;51.608;7.216;2022-12-20T01:03:24;11.48;82.08
65836;SHT30;52595;51.608;7.216;2022-12-20T01:05:55;11.44;82.31
65836;SHT30;52595;51.608;7.216;2022-12-20T01:08:21;11.45;82.10
65836;SHT30;52595;51.608;7.216;2022-12-20T01:11:00;11.47;82.00
65836;SHT30;52595;51.608;7.216;2022-12-20T01:13:26;11.47;81.87
65836;SHT30;52595;51.608;7.216;2022-12-20T01:15:51;11.61;81.49
65836;SHT30;52595;51.608;7.216;2022-12-20T01:18:17;11.67;81.29
65836;SHT30;52595;51.608;7.216;2022-12-20T01:20:42;11.67;81.39
65836;SHT30;52595;51.608;7.216;2022-12-20T01:23:08;11.61;81.50
65836;SHT30;52595;51.608;7.216;2022-12-20T01:25:33;11.60;81.61
65836;SHT30;52595;51.608;7.216;2022-12-20T01:27:58;11.53;81.68
65836;SHT30;52595;51.608;7.216;2022-12-20T01:30:24;11.57;81.58
65836;SHT30;52595;51.608;7.216;2022-12-20T01:32:49;11.47;81.82
65836;SHT30;52595;51.608;7.216;2022-12-20T01:35:14;11.53;81.61
65836;SHT30;52595;51.608;7.216;2022-12-20T01:37:40;11.51;81.56
65836;SHT30;52595;51.608;7.216;2022-12-20T01:40:06;11.51;81.64
65836;SHT30;52595;51.608;7.216;2022-12-20T01:42:31;11.65;81.20
65836;SHT30;52595;51.608;7.216;2022-12-20T01:44:58;11.70;81.33
65836;SHT30;52595;51.608;7.216;2022-12-20T01:47:25;11.71;81.18
65836;SHT30;52595;51.608;7.216;2022-12-20T01:49:53;11.68;81.30
65836;SHT30;52595;51.608;7.216;2022-12-20T01:52:35;11.67;81.46
65836;SHT30;52595;51.608;7.216;2022-12-20T01:55:21;11.74;81.13
65836;SHT30;52595;51.608;7.216;2022-12-20T01:57:56;11.87;80.56
65836;SHT30;52595;51.608;7.216;2022-12-20T02:00:23;11.79;81.02
65836;SHT30;52595;51.608;7.216;2022-12-20T02:02:49;11.79;81.12
65836;SHT30;52595;51.608;7.216;2022-12-20T02:05:19;11.78;81.04
65836;SHT30;52595;51.608;7.216;2022-12-20T02:07:48;11.82;80.99
65836;SHT30;52595;51.608;7.216;2022-12-20T02:10:16;11.84;80.97
65836;SHT30;52595;51.608;7.216;2022-12-20T02:12:44;11.87;80.88
65836;SHT30;52595;51.608;7.216;2022-12-20T02:31:18;11.74;81.77
65836;SHT30;52595;51.608;7.216;2022-12-20T02:33:46;11.87;81.48
65836;SHT30;52595;51.608;7.216;2022-12-20T02:36:16;11.91;81.32
65836;SHT30;52595;51.608;7.216;2022-12-20T02:38:43;11.89;81.49
65836;SHT30;52595;51.608;7.216;2022-12-20T02:41:21;11.74;82.01
65836;SHT30;52595;51.608;7.216;2022-12-20T02:43:53;11.78;82.08
65836;SHT30;52595;51.608;7.216;2022-12-20T02:46:39;11.79;82.15
65836;SHT30;52595;51.608;7.216;2022-12-20T02:49:10;11.84;81.86
65836;SHT30;52595;51.608;7.216;2022-12-20T02:51:36;11.82;81.96
65836;SHT30;52595;51.608;7.216;2022-12-20T02:54:03;11.82;81.93
65836;SHT30;52595;51.608;7.216;2022-12-20T02:56:46;11.79;82.12
65836;SHT30;52595;51.608;7.216;2022-12-20T02:59:16;11.79;82.49
65836;SHT30;52595;51.608;7.216;2022-12-20T03:01:54;11.70;83.06
65836;SHT30;52595;51.608;7.216;2022-12-20T03:04:24;11.61;83.42
65836;SHT30;52595;51.608;7.216;2022-12-20T03:09:25;11.50;84.04
65836;SHT30;52595;51.608;7.216;2022-12-20T03:11:51;11.54;84.14
65836;SHT30;52595;51.608;7.216;2022-12-20T03:14:17;11.53;84.33
65836;SHT30;52595;51.608;7.216;2022-12-20T03:16:42;11.38;85.66
65836;SHT30;52595;51.608;7.216;2022-12-20T03:19:07;11.23;86.33
65836;SHT30;52595;51.608;7.216;2022-12-20T03:21:33;11.06;87.47
65836;SHT30;52595;51.608;7.216;2022-12-20T03:23:58;10.82;88.77
65836;SHT30;52595;51.608;7.216;2022-12-20T03:26:23;10.73;89.33
65836;SHT30;52595;51.608;7.216;2022-12-20T03:28:49;10.66;89.66
65836;SHT30;52595;51.608;7.216;2022-12-20T03:31:14;10.69;89.35
65836;SHT30;52595;51.608;7.216;2022-12-20T03:33:40;10.66;89.63
65836;SHT30;52595;51.608;7.216;2022-12-20T03:36:05;10.69;89.58
65836;SHT30;52595;51.608;7.216;2022-12-20T03:38:30;10.73;89.46
65836;SHT30;52595;51.608;7.216;2022-12-20T03:40:56;10.65;89.94
65836;SHT30;52595;51.608;7.216;2022-12-20T03:43:21;10.68;89.51
65836;SHT30;52595;51.608;7.216;2022-12-20T03:45:46;10.76;89.30
65836;SHT30;52595;51.608;7.216;2022-12-20T03:48:12;10.72;89.40
65836;SHT30;52595;51.608;7.216;2022-12-20T03:50:37;10.71;89.49
65836;SHT30;52595;51.608;7.216;2022-12-20T03:53:03;10.55;90.48
65836;SHT30;52595;51.608;7.216;2022-12-20T03:55:29;10.46;90.96
65836;SHT30;52595;51.608;7.216;2022-12-20T03:57:54;10.38;91.55
65836;SHT30;52595;51.608;7.216;2022-12-20T04:00:21;10.37;91.72
65836;SHT30;52595;51.608;7.216;2022-12-20T04:02:46;10.37;91.68
65836;SHT30;52595;51.608;7.216;2022-12-20T04:05:12;10.39;91.59
65836;SHT30;52595;51.608;7.216;2022-12-20T04:07:37;10.25;92.38
65836;SHT30;52595;51.608;7.216;2022-12-20T04:10:03;10.32;91.85
65836;SHT30;52595;51.608;7.216;2022-12-20T04:12:28;10.18;92.55
65836;SHT30;52595;51.608;7.216;2022-12-20T04:14:54;10.27;91.75
65836;SHT30;52595;51.608;7.216;2022-12-20T04:17:19;10.45;91.04
65836;SHT30;52595;51.608;7.216;2022-12-20T04:19:44;10.49;90.54
65836;SHT30;52595;51.608;7.216;2022-12-20T04:22:10;10.53;90.35
65836;SHT30;52595;51.608;7.216;2022-12-20T04:24:35;10.49;90.77
65836;SHT30;52595;51.608;7.216;2022-12-20T04:27:01;10.38;91.38
65836;SHT30;52595;51.608;7.216;2022-12-20T04:29:26;10.38;90.98
65836;SHT30;52595;51.608;7.216;2022-12-20T04:31:52;10.45;90.82
65836;SHT30;52595;51.608;7.216;2022-12-20T04:34:17;10.34;91.17
65836;SHT30;52595;51.608;7.216;2022-12-20T04:36:42;10.32;91.49
65836;SHT30;52595;51.608;7.216;2022-12-20T04:39:08;10.28;91.72
65836;SHT30;52595;51.608;7.216;2022-12-20T04:41:33;10.27;91.85
65836;SHT30;52595;51.608;7.216;2022-12-20T04:43:59;10.31;91.70
65836;SHT30;52595;51.608;7.216;2022-12-20T04:46:24;10.37;91.49
65836;SHT30;52595;51.608;7.216;2022-12-20T04:48:50;10.32;91.95
65836;SHT30;52595;51.608;7.216;2022-12-20T04:51:16;10.49;91.39
65836;SHT30;52595;51.608;7.216;2022-12-20T04:53:41;10.42;91.55
65836;SHT30;52595;51.608;7.216;2022-12-20T04:56:22;10.46;91.51
65836;SHT30;52595;51.608;7.216;2022-12-20T04:58:49;10.41;91.72
65836;SHT30;52595;51.608;7.216;2022-12-20T05:01:16;10.41;91.83
65836;SHT30;52595;51.608;7.216;2022-12-20T05:03:42;10.49;91.54
65836;SHT30;52595;51.608;7.216;2022-12-20T05:06:08;10.41;92.12
65836;SHT30;52595;51.608;7.216;2022-12-20T05:08:35;10.35;92.91
65836;SHT30;52595;51.608;7.216;2022-12-20T05:11:01;10.24;93.39
65836;SHT30;52595;51.608;7.216;2022-12-20T05:13:26;10.15;94.58
65836;SHT30;52595;51.608;7.216;2022-12-20T05:15:53;10.14;94.77
65836;SHT30;52595;51.608;7.216;2022-12-20T05:18:19;9.99;95.71
65836;SHT30;52595;51.608;7.216;2022-12-20T05:20:46;10.04;95.49
65836;SHT30;52595;51.608;7.216;2022-12-20T05:23:11;10.04;95.63
65836;SHT30;52595;51.608;7.216;2022-12-20T05:25:55;9.95;95.97
65836;SHT30;52595;51.608;7.216;2022-12-20T05:28:39;9.98;95.85
65836;SHT30;52595;51.608;7.216;2022-12-20T05:31:05;9.91;96.53
65836;SHT30;52595;51.608;7.216;2022-12-20T05:33:31;9.94;96.36
65836;SHT30;52595;51.608;7.216;2022-12-20T05:35:56;9.95;96.79
65836;SHT30;52595;51.608;7.216;2022-12-20T05:38:22;9.88;97.17
65836;SHT30;52595;51.608;7.216;2022-12-20T05:40:49;9.95;96.38
65836;SHT30;52595;51.608;7.216;2022-12-20T05:43:16;9.90;96.85
65836;SHT30;52595;51.608;7.216;2022-12-20T05:45:49;9.87;97.21
65836;SHT30;52595;51.608;7.216;2022-12-20T05:48:16;9.83;97.37
65836;SHT30;52595;51.608;7.216;2022-12-20T05:50:43;9.78;97.33
65836;SHT30;52595;51.608;7.216;2022-12-20T05:53:11;9.78;97.14
65836;SHT30;52595;51.608;7.216;2022-12-20T05:55:44;9.77;97.00
65836;SHT30;52595;51.608;7.216;2022-12-20T05:58:09;9.77;96.93
65836;SHT30;52595;51.608;7.216;2022-12-20T06:00:38;9.81;96.19
65836;SHT30;52595;51.608;7.216;2022-12-20T06:03:04;9.95;95.44
65836;SHT30;52595;51.608;7.216;2022-12-20T06:05:30;10.04;94.75
65836;SHT30;52595;51.608;7.216;2022-12-20T06:07:56;10.05;94.42
65836;SHT30;52595;51.608;7.216;2022-12-20T06:10:21;10.15;93.77
65836;SHT30;52595;51.608;7.216;2022-12-20T06:12:47;10.17;93.72
65836;SHT30;52595;51.608;7.216;2022-12-20T06:15:12;10.17;93.42
65836;SHT30;52595;51.608;7.216;2022-12-20T06:17:39;10.19;93.22
65836;SHT30;52595;51.608;7.216;2022-12-20T06:20:05;10.22;93.04
65836;SHT30;52595;51.608;7.216;2022-12-20T06:22:31;10.14;93.35
65836;SHT30;52595;51.608;7.216;2022-12-20T06:24:56;10.21;92.99
65836;SHT30;52595;51.608;7.216;2022-12-20T06:27:22;10.14;93.21
65836;SHT30;52595;51.608;7.216;2022-12-20T06:29:47;10.25;92.61
65836;SHT30;52595;51.608;7.216;2022-12-20T06:32:16;10.22;92.40
65836;SHT30;52595;51.608;7.216;2022-12-20T06:34:42;10.21;92.48
65836;SHT30;52595;51.608;7.216;2022-12-20T06:37:08;10.22;92.53
65836;SHT30;52595;51.608;7.216;2022-12-20T06:39:33;10.25;92.12
65836;SHT30;52595;51.608;7.216;2022-12-20T06:41:59;10.34;91.82
65836;SHT30;52595;51.608;7.216;2022-12-20T06:44:24;10.37;91.42
65836;SHT30;52595;51.608;7.216;2022-12-20T06:46:49;10.38;91.44
65836;SHT30;52595;51.608;7.216;2022-12-20T06:49:15;10.39;91.25
65836;SHT30;52595;51.608;7.216;2022-12-20T06:51:40;10.41;90.95
65836;SHT30;52595;51.608;7.216;2022-12-20T06:54:06;10.45;90.68
65836;SHT30;52595;51.608;7.216;2022-12-20T06:56:31;10.48;90.55
65836;SHT30;52595;51.608;7.216;2022-12-20T06:58:57;10.55;90.03
65836;SHT30;52595;51.608;7.216;2022-12-20T07:01:22;10.53;90.04
65836;SHT30;52595;51.608;7.216;2022-12-20T07:03:47;10.53;90.08
65836;SHT30;52595;51.608;7.216;2022-12-20T07:06:13;10.55;89.89
65836;SHT30;52595;51.608;7.216;2022-12-20T07:08:38;10.58;89.78
65836;SHT30;52595;51.608;7.216;2022-12-20T07:11:07;10.58;89.70
65836;SHT30;52595;51.608;7.216;2022-12-20T07:13:33;10.61;89.46
65836;SHT30;52595;51.608;7.216;2022-12-20T07:16:02;10.69;89.02
65836;SHT30;52595;51.608;7.216;2022-12-20T07:18:28;10.71;89.03
65836;SHT30;52595;51.608;7.216;2022-12-20T07:20:58;10.62;89.19
65836;SHT30;52595;51.608;7.216;2022-12-20T07:23:24;10.63;89.32
65836;SHT30;52595;51.608;7.216;2022-12-20T07:25:58;10.61;88.90
65836;SHT30;52595;51.608;7.216;2022-12-20T07:28:24;10.68;88.80
65836;SHT30;52595;51.608;7.216;2022-12-20T07:30:50;10.75;88.28
65836;SHT30;52595;51.608;7.216;2022-12-20T07:33:16;10.80;88.16
65836;SHT30;52595;51.608;7.216;2022-12-20T07:35:41;10.83;87.84
65836;SHT30;52595;51.608;7.216;2022-12-20T07:38:10;10.88;87.63
65836;SHT30;52595;51.608;7.216;2022-12-20T07:40:35;10.86;87.71
65836;SHT30;52595;51.608;7.216;2022-12-20T07:43:03;10.84;87.61
65836;SHT30;52595;51.608;7.216;2022-12-20T07:45:29;10.93;87.22
65836;SHT30;52595;51.608;7.216;2022-12-20T07:47:54;10.93;87.20
65836;SHT30;52595;51.608;7.216;2022-12-20T07:50:21;10.96;87.39
65836;SHT30;52595;51.608;7.216;2022-12-20T07:52:48;11.02;86.91
65836;SHT30;52595;51.608;7.216;2022-12-20T07:55:14;11.07;86.53
65836;SHT30;52595;51.608;7.216;2022-12-20T07:57:44;10.99;87.13
65836;SHT30;52595;51.608;7.216;2022-12-20T08:00:11;10.96;87.04
65836;SHT30;52595;51.608;7.216;2022-12-20T08:02:45;11.09;86.33
65836;SHT30;52595;51.608;7.216;2022-12-20T08:05:12;11.14;86.15
65836;SHT30;52595;51.608;7.216;2022-12-20T08:07:40;11.10;86.52
65836;SHT30;52595;51.608;7.216;2022-12-20T08:10:08;11.14;86.23
65836;SHT30;52595;51.608;7.216;2022-12-20T08:12:35;11.12;86.03
65836;SHT30;52595;51.608;7.216;2022-12-20T08:15:01;11.07;86.24
65836;SHT30;52595;51.608;7.216;2022-12-20T08:17:27;11.07;86.08
65836;SHT30;52595;51.608;7.216;2022-12-20T08:19:52;11.03;86.26
65836;SHT30;52595;51.608;7.216;2022-12-20T08:22:18;11.19;85.63
65836;SHT30;52595;51.608;7.216;2022-12-20T08:24:44;11.22;85.52
65836;SHT30;52595;51.608;7.216;2022-12-20T08:27:09;11.26;85.52
65836;SHT30;52595;51.608;7.216;2022-12-20T08:29:35;11.34;85.32
65836;SHT30;52595;51.608;7.216;2022-12-20T08:32:00;11.40;84.90
65836;SHT30;52595;51.608;7.216;2022-12-20T08:34:26;11.51;84.34
65836;SHT30;52595;51.608;7.216;2022-12-20T08:36:51;11.70;83.76
65836;SHT30;52595;51.608;7.216;2022-12-20T08:39:17;11.78;83.32
65836;SHT30;52595;51.608;7.216;2022-12-20T08:41:42;11.88;83.06
65836;SHT30;52595;51.608;7.216;2022-12-20T08:44:08;11.88;83.07
65836;SHT30;52595;51.608;7.216;2022-12-20T08:46:35;11.94;82.94
65836;SHT30;52595;51.608;7.216;2022-12-20T08:49:01;11.98;82.85
65836;SHT30;52595;51.608;7.216;2022-12-20T08:51:27;11.98;82.79
65836;SHT30;52595;51.608;7.216;2022-12-20T08:53:53;12.05;82.58
65836;SHT30;52595;51.608;7.216;2022-12-20T08:56:18;12.18;82.17
65836;SHT30;52595;51.608;7.216;2022-12-20T08:58:44;12.25;81.86
65836;SHT30;52595;51.608;7.216;2022-12-20T09:01:12;12.28;81.99
65836;SHT30;52595;51.608;7.216;2022-12-20T09:03:39;12.22;82.02
65836;SHT30;52595;51.608;7.216;2022-12-20T09:06:10;12.36;81.54
65836;SHT30;52595;51.608;7.216;2022-12-20T09:08:37;12.38;81.12
65836;SHT30;52595;51.608;7.216;2022-12-20T09:11:13;12.39;81.39
65836;SHT30;52595;51.608;7.216;2022-12-20T09:13:41;12.40;81.21
65836;SHT30;52595;51.608;7.216;2022-12-20T09:16:07;12.49;80.94
65836;SHT30;52595;51.608;7.216;2022-12-20T09:18:33;12.53;80.78
65836;SHT30;52595;51.608;7.216;2022-12-20T09:21:00;12.50;80.98
65836;SHT30;52595;51.608;7.216;2022-12-20T09:23:27;12.53;80.63
65836;SHT30;52595;51.608;7.216;2022-12-20T09:25:53;12.53;80.57
65836;SHT30;52595;51.608;7.216;2022-12-20T09:28:18;12.40;81.33
65836;SHT30;52595;51.608;7.216;2022-12-20T09:30:44;12.39;81.31
65836;SHT30;52595;51.608;7.216;2022-12-20T09:33:09;12.42;81.20
65836;SHT30;52595;51.608;7.216;2022-12-20T09:35:35;12.43;81.41
65836;SHT30;52595;51.608;7.216;2022-12-20T09:38:00;12.43;81.22
65836;SHT30;52595;51.608;7.216;2022-12-20T09:40:29;12.38;81.62
65836;SHT30;52595;51.608;7.216;2022-12-20T09:42:56;12.39;81.46
65836;SHT30;52595;51.608;7.216;2022-12-20T09:45:31;12.42;81.14
65836;SHT30;52595;51.608;7.216;2022-12-20T09:47:58;12.38;81.68
65836;SHT30;52595;51.608;7.216;2022-12-20T09:50:49;12.39;81.60
65836;SHT30;52595;51.608;7.216;2022-12-20T09:53:27;12.40;82.02
65836;SHT30;52595;51.608;7.216;2022-12-20T09:56:05;12.36;81.82
65836;SHT30;52595;51.608;7.216;2022-12-20T10:01:22;12.21;83.39
65836;SHT30;52595;51.608;7.216;2022-12-20T10:03:52;12.18;83.22
65836;SHT30;52595;51.608;7.216;2022-12-20T10:09:33;12.24;83.47
65836;SHT30;52595;51.608;7.216;2022-12-20T10:12:42;12.09;84.26
65836;SHT30;52595;51.608;7.216;2022-12-20T10:25:22;12.22;83.23
65836;SHT30;52595;51.608;7.216;2022-12-20T10:27:50;12.24;83.22
65836;SHT30;52595;51.608;7.216;2022-12-20T10:30:20;12.22;82.90
65836;SHT30;52595;51.608;7.216;2022-12-20T10:32:54;12.15;84.09
65836;SHT30;52595;51.608;7.216;2022-12-20T10:35:24;11.91;85.22
65836;SHT30;52595;51.608;7.216;2022-12-20T10:40:34;11.99;84.62
65836;SHT30;52595;51.608;7.216;2022-12-20T10:43:01;12.08;84.78
65836;SHT30;52595;51.608;7.216;2022-12-20T10:45:38;12.19;83.56
65836;SHT30;52595;51.608;7.216;2022-12-20T10:48:24;12.22;84.03
65836;SHT30;52595;51.608;7.216;2022-12-20T10:53:34;12.38;83.06
65836;SHT30;52595;51.608;7.216;2022-12-20T10:56:16;12.43;82.91
65836;SHT30;52595;51.608;7.216;2022-12-20T10:59:00;12.46;82.90
65836;SHT30;52595;51.608;7.216;2022-12-20T11:01:32;12.45;83.48
65836;SHT30;52595;51.608;7.216;2022-12-20T11:04:01;12.50;83.27
65836;SHT30;52595;51.608;7.216;2022-12-20T11:09:34;12.57;83.36
65836;SHT30;52595;51.608;7.216;2022-12-20T11:12:12;12.49;83.15
65836;SHT30;52595;51.608;7.216;2022-12-20T11:14:39;12.52;83.43
65836;SHT30;52595;51.608;7.216;2022-12-20T11:23:45;12.50;83.54
65836;SHT30;52595;51.608;7.216;2022-12-20T11:37:25;12.70;82.33
65836;SHT30;52595;51.608;7.216;2022-12-20T11:40:10;12.66;82.67
65836;SHT30;52595;51.608;7.216;2022-12-20T11:43:03;12.57;83.19
65836;SHT30;52595;51.608;7.216;2022-12-20T11:45:39;12.59;82.60
65836;SHT30;52595;51.608;7.216;2022-12-20T11:55:58;12.56;82.61
65836;SHT30;52595;51.608;7.216;2022-12-20T11:58:31;12.64;82.54
65836;SHT30;52595;51.608;7.216;2022-12-20T12:01:14;12.69;82.63
65836;SHT30;52595;51.608;7.216;2022-12-20T12:03:49;12.57;82.92
65836;SHT30;52595;51.608;7.216;2022-12-20T12:06:40;12.49;83.67
65836;SHT30;52595;51.608;7.216;2022-12-20T12:09:39;12.22;84.81
65836;SHT30;52595;51.608;7.216;2022-12-20T12:12:43;12.19;85.05
65836;SHT30;52595;51.608;7.216;2022-12-20T12:15:31;12.24;84.55
65836;SHT30;52595;51.608;7.216;2022-12-20T12:18:04;12.25;84.14
65836;SHT30;52595;51.608;7.216;2022-12-20T12:20:50;12.33;83.85
65836;SHT30;52595;51.608;7.216;2022-12-20T12:25:58;12.49;83.07
65836;SHT30;52595;51.608;7.216;2022-12-20T12:28:26;12.52;83.13
65836;SHT30;52595;51.608;7.216;2022-12-20T12:30:56;12.63;82.65
65836;SHT30;52595;51.608;7.216;2022-12-20T12:33:28;12.67;82.11
65836;SHT30;52595;51.608;7.216;2022-12-20T12:36:20;12.67;82.15
65836;SHT30;52595;51.608;7.216;2022-12-20T12:39:13;12.72;81.47
65836;SHT30;52595;51.608;7.216;2022-12-20T12:46:47;12.77;81.22
65836;SHT30;52595;51.608;7.216;2022-12-20T12:49:18;12.79;80.90
65836;SHT30;52595;51.608;7.216;2022-12-20T12:51:54;12.82;80.88
65836;SHT30;52595;51.608;7.216;2022-12-20T12:56:49;12.86;80.86
65836;SHT30;52595;51.608;7.216;2022-12-20T13:04:53;12.84;80.94
65836;SHT30;52595;51.608;7.216;2022-12-20T13:20:35;12.92;80.99
65836;SHT30;52595;51.608;7.216;2022-12-20T13:25:40;12.69;83.35
65836;SHT30;52595;51.608;7.216;2022-12-20T13:33:45;11.85;89.55
65836;SHT30;52595;51.608;7.216;2022-12-20T13:41:19;10.90;97.31
65836;SHT30;52595;51.608;7.216;2022-12-20T13:43:48;10.79;97.73
65836;SHT30;52595;51.608;7.216;2022-12-20T13:46:31;10.68;98.62
65836;SHT30;52595;51.608;7.216;2022-12-20T13:49:02;10.65;98.75
65836;SHT30;52595;51.608;7.216;2022-12-20T13:51:29;10.62;99.01
65836;SHT30;52595;51.608;7.216;2022-12-20T13:54:11;10.55;99.50
65836;SHT30;52595;51.608;7.216;2022-12-20T13:56:49;10.53;99.69
65836;SHT30;52595;51.608;7.216;2022-12-20T13:59:24;10.51;99.75
65836;SHT30;52595;51.608;7.216;2022-12-20T14:01:53;10.46;99.96
65836;SHT30;52595;51.608;7.216;2022-12-20T14:04:20;10.44;99.99
65836;SHT30;52595;51.608;7.216;2022-12-20T14:06:55;10.46;99.99
65836;SHT30;52595;51.608;7.216;2022-12-20T14:09:33;10.42;99.99
65836;SHT30;52595;51.608;7.216;2022-12-20T14:12:11;10.42;99.99
65836;SHT30;52595;51.608;7.216;2022-12-20T14:14:44;10.38;99.99
65836;SHT30;52595;51.608;7.216;2022-12-20T14:17:26;10.37;99.99
65836;SHT30;52595;51.608;7.216;2022-12-20T14:22:36;10.35;99.99
65836;SHT30;52595;51.608;7.216;2022-12-20T14:25:04;10.32;99.99
65836;SHT30;52595;51.608;7.216;2022-12-20T14:27:33;10.31;99.99
65836;SHT30;52595;51.608;7.216;2022-12-20T14:29:59;10.29;99.99
65836;SHT30;52595;51.608;7.216;2022-12-20T14:32:25;10.27;99.99
65836;SHT30;52595;51.608;7.216;2022-12-20T14:34:51;10.27;99.99
65836;SHT30;52595;51.608;7.216;2022-12-20T14:37:31;10.27;99.99
65836;SHT30;52595;51.608;7.216;2022-12-20T14:42:36;10.25;99.99
65836;SHT30;52595;51.608;7.216;2022-12-20T14:45:17;10.21;99.99
65836;SHT30;52595;51.608;7.216;2022-12-20T14:48:14;10.22;99.99
65836;SHT30;52595;51.608;7.216;2022-12-20T14:50:39;10.19;99.99
65836;SHT30;52595;51.608;7.216;2022-12-20T14:53:19;10.18;99.99
65836;SHT30;52595;51.608;7.216;2022-12-20T14:55:46;10.19;99.99
65836;SHT30;52595;51.608;7.216;2022-12-20T14:58:32;10.21;99.99
65836;SHT30;52595;51.608;7.216;2022-12-20T15:01:19;10.19;99.99
65836;SHT30;52595;51.608;7.216;2022-12-20T15:03:53;10.17;99.99
65836;SHT30;52595;51.608;7.216;2022-12-20T15:09:03;10.15;99.99
65836;SHT30;52595;51.608;7.216;2022-12-20T15:11:30;10.12;99.99
65836;SHT30;52595;51.608;7.216;2022-12-20T15:13:57;10.11;99.99
65836;SHT30;52595;51.608;7.216;2022-12-20T15:16:29;10.17;99.99
65836;SHT30;52595;51.608;7.216;2022-12-20T15:18:57;10.11;99.99
65836;SHT30;52595;51.608;7.216;2022-12-20T15:21:34;10.08;99.99
65836;SHT30;52595;51.608;7.216;2022-12-20T15:24:03;10.11;99.99
65836;SHT30;52595;51.608;7.216;2022-12-20T15:26:32;10.12;99.99
65836;SHT30;52595;51.608;7.216;2022-12-20T15:28:58;10.12;99.99
65836;SHT30;52595;51.608;7.216;2022-12-20T15:31:26;10.14;99.99
65836;SHT30;52595;51.608;7.216;2022-12-20T15:33:52;10.14;99.99
65836;SHT30;52595;51.608;7.216;2022-12-20T15:36:26;10.12;99.99
65836;SHT30;52595;51.608;7.216;2022-12-20T15:38:53;10.11;99.99
65836;SHT30;52595;51.608;7.216;2022-12-20T15:41:28;10.05;99.99
65836;SHT30;52595;51.608;7.216;2022-12-20T15:43:56;10.09;99.99
65836;SHT30;52595;51.608;7.216;2022-12-20T15:46:22;10.08;99.99
65836;SHT30;52595;51.608;7.216;2022-12-20T15:48:48;10.11;99.99
65836;SHT30;52595;51.608;7.216;2022-12-20T15:51:31;10.11;99.99
65836;SHT30;52595;51.608;7.216;2022-12-20T15:53:58;10.08;99.99
65836;SHT30;52595;51.608;7.216;2022-12-20T15:56:25;10.07;99.99
65836;SHT30;52595;51.608;7.216;2022-12-20T15:58:51;10.11;99.99
65836;SHT30;52595;51.608;7.216;2022-12-20T16:01:33;10.12;99.99
65836;SHT30;52595;51.608;7.216;2022-12-20T16:04:00;10.08;99.99
65836;SHT30;52595;51.608;7.216;2022-12-20T16:06:25;10.02;99.99
65836;SHT30;52595;51.608;7.216;2022-12-20T16:08:51;10.08;99.99
65836;SHT30;52595;51.608;7.216;2022-12-20T16:11:25;10.09;99.99
65836;SHT30;52595;51.608;7.216;2022-12-20T16:13:52;10.07;99.99
65836;SHT30;52595;51.608;7.216;2022-12-20T16:16:20;10.04;99.99
65836;SHT30;52595;51.608;7.216;2022-12-20T16:18:46;10.05;99.99
65836;SHT30;52595;51.608;7.216;2022-12-20T16:21:20;10.02;99.99
65836;SHT30;52595;51.608;7.216;2022-12-20T16:23:46;10.02;99.99
65836;SHT30;52595;51.608;7.216;2022-12-20T16:26:20;10.05;99.99
65836;SHT30;52595;51.608;7.216;2022-12-20T16:28:46;10.01;99.99
65836;SHT30;52595;51.608;7.216;2022-12-20T16:31:32;9.99;99.99
65836;SHT30;52595;51.608;7.216;2022-12-20T16:34:00;10.01;99.99
65836;SHT30;52595;51.608;7.216;2022-12-20T16:36:27;9.99;99.99
65836;SHT30;52595;51.608;7.216;2022-12-20T16:38:53;10.02;99.99
65836;SHT30;52595;51.608;7.216;2022-12-20T16:41:27;10.01;99.99
65836;SHT30;52595;51.608;7.216;2022-12-20T16:43:55;10.05;99.99
65836;SHT30;52595;51.608;7.216;2022-12-20T16:46:23;10.04;99.99
65836;SHT30;52595;51.608;7.216;2022-12-20T16:48:50;10.09;99.99
65836;SHT30;52595;51.608;7.216;2022-12-20T16:54:02;10.04;99.99
65836;SHT30;52595;51.608;7.216;2022-12-20T16:56:28;10.05;99.99
65836;SHT30;52595;51.608;7.216;2022-12-20T16:58:54;10.07;99.99
65836;SHT30;52595;51.608;7.216;2022-12-20T17:01:24;10.05;99.99
65836;SHT30;52595;51.608;7.216;2022-12-20T17:03:52;10.07;99.99
65836;SHT30;52595;51.608;7.216;2022-12-20T17:06:17;10.08;99.99
65836;SHT30;52595;51.608;7.216;2022-12-20T17:08:44;10.05;99.99
65836;SHT30;52595;51.608;7.216;2022-12-20T17:11:21;10.08;99.99
65836;SHT30;52595;51.608;7.216;2022-12-20T17:13:49;10.11;99.99
65836;SHT30;52595;51.608;7.216;2022-12-20T17:16:15;10.09;99.99
65836;SHT30;52595;51.608;7.216;2022-12-20T17:18:46;10.07;99.99
65836;SHT30;52595;51.608;7.216;2022-12-20T17:23:40;10.08;99.99
65836;SHT30;52595;51.608;7.216;2022-12-20T17:26:06;10.11;99.99
65836;SHT30;52595;51.608;7.216;2022-12-20T17:28:32;10.12;99.99
65836;SHT30;52595;51.608;7.216;2022-12-20T17:30:57;10.17;99.99
65836;SHT30;52595;51.608;7.216;2022-12-20T17:33:23;10.19;99.99
65836;SHT30;52595;51.608;7.216;2022-12-20T17:35:48;10.19;99.99
65836;SHT30;52595;51.608;7.216;2022-12-20T17:38:13;10.17;99.99
65836;SHT30;52595;51.608;7.216;2022-12-20T17:40:39;10.15;99.99
65836;SHT30;52595;51.608;7.216;2022-12-20T17:43:04;10.14;99.99
65836;SHT30;52595;51.608;7.216;2022-12-20T17:45:32;10.15;99.99
65836;SHT30;52595;51.608;7.216;2022-12-20T17:48:00;10.19;99.99
65836;SHT30;52595;51.608;7.216;2022-12-20T17:50:26;10.15;99.99